Terminal Aerodrome Forecast
Issued by NWS St Louis, MO

Home | Current Version | Previous Version | Text Only | Print | Product List | Glossary On
Versions: 1 2 3 4 5 6 7 8 9 10 11 12 13 14 15 16
746
FTUS43 KLSX 102254 AAC
TAFCOU
TAF AMD
KCOU 102254Z 1023/1118 12005KT P6SM SKC
     FM110400 08009KT P6SM BKN060=

USA.gov is the U.S. government's official web portal to all federal, state and local government web resources and services.